createdAt,value
2022-08-31T00:00:08.301Z,1019.18
2022-08-31T00:01:09.173Z,1019.17
2022-08-31T00:02:10.152Z,1019.19
2022-08-31T00:03:11.097Z,1019.19
2022-08-31T00:04:11.947Z,1019.15
2022-08-31T00:05:12.813Z,1019.15
2022-08-31T00:06:13.686Z,1019.14
2022-08-31T00:07:14.585Z,1019.12
2022-08-31T00:08:15.448Z,1019.09
2022-08-31T00:09:16.343Z,1019.06
2022-08-31T00:10:17.221Z,1019.05
2022-08-31T00:11:18.088Z,1019.03
2022-08-31T00:12:18.969Z,1019.04
2022-08-31T00:13:19.987Z,1019.02
2022-08-31T00:14:20.347Z,1019.01
2022-08-31T00:15:22.051Z,1019.01
2022-08-31T00:16:21.973Z,1019.01
2022-08-31T00:17:22.791Z,1019.03
2022-08-31T00:18:23.686Z,1019.04
2022-08-31T00:19:24.563Z,1019.07
2022-08-31T00:20:33.735Z,1019.07
2022-08-31T00:21:27.209Z,1019.12
2022-08-31T00:22:27.090Z,1019.15
2022-08-31T00:23:27.964Z,1019.18
2022-08-31T00:24:28.862Z,1019.21
2022-08-31T00:25:29.739Z,1019.22
2022-08-31T00:26:30.639Z,1019.23
2022-08-31T00:27:31.512Z,1019.24
2022-08-31T00:28:32.386Z,1019.22
2022-08-31T00:29:33.277Z,1019.20
2022-08-31T00:30:34.161Z,1019.22
2022-08-31T00:31:35.093Z,1019.18
2022-08-31T00:32:35.950Z,1019.14
2022-08-31T00:33:36.826Z,1019.14
2022-08-31T00:34:37.711Z,1019.14
2022-08-31T00:35:38.585Z,1019.14
2022-08-31T00:36:39.465Z,1019.15
2022-08-31T00:37:40.352Z,1019.11
2022-08-31T00:38:41.220Z,1019.14
2022-08-31T00:39:42.101Z,1019.17
2022-08-31T00:40:44.955Z,1019.14
2022-08-31T00:41:43.504Z,1019.14
2022-08-31T00:42:44.382Z,1019.11
2022-08-31T00:43:45.270Z,1019.09
2022-08-31T00:44:46.162Z,1019.06
2022-08-31T00:45:47.140Z,1019.06
2022-08-31T00:46:48.003Z,1019.05
2022-08-31T00:47:48.895Z,1019.05
2022-08-31T00:48:49.806Z,1019.03
2022-08-31T00:49:50.699Z,1019.00
2022-08-31T00:50:51.602Z,1019.01
2022-08-31T00:51:52.534Z,1019.02
2022-08-31T00:52:53.372Z,1019.03
2022-08-31T00:53:54.288Z,1019.01
2022-08-31T00:54:55.164Z,1019.02
2022-08-31T00:55:56.037Z,1019.01
2022-08-31T00:56:56.928Z,1019.00
2022-08-31T00:57:57.800Z,1019.02
2022-08-31T00:58:58.689Z,1018.99
2022-08-31T00:59:59.556Z,1018.99
2022-08-31T01:01:00.510Z,1018.98
2022-08-31T01:02:01.492Z,1018.95
2022-08-31T01:03:02.351Z,1018.93
2022-08-31T01:04:03.240Z,1018.91
2022-08-31T01:05:04.118Z,1018.90
2022-08-31T01:06:04.997Z,1018.88
2022-08-31T01:07:05.887Z,1018.88
2022-08-31T01:08:06.753Z,1018.86
2022-08-31T01:09:07.637Z,1018.87
2022-08-31T01:10:08.520Z,1018.85
2022-08-31T01:11:09.391Z,1018.85
2022-08-31T01:12:10.266Z,1018.86
2022-08-31T01:13:11.210Z,1018.87
2022-08-31T01:14:12.040Z,1018.82
2022-08-31T01:15:12.930Z,1018.85
2022-08-31T01:16:13.836Z,1018.85
2022-08-31T01:17:14.671Z,1018.84
2022-08-31T01:18:15.545Z,1018.86
2022-08-31T01:19:16.290Z,1018.86
2022-08-31T01:20:17.167Z,1018.87
2022-08-31T01:21:18.050Z,1018.85
2022-08-31T01:22:18.918Z,1018.85
2022-08-31T01:23:19.999Z,1018.86
2022-08-31T01:24:20.353Z,1018.86
2022-08-31T01:25:21.235Z,1018.85
2022-08-31T01:26:22.105Z,1018.83
2022-08-31T01:27:22.989Z,1018.80
2022-08-31T01:28:23.858Z,1018.80
2022-08-31T01:29:24.746Z,1018.80
2022-08-31T01:30:25.630Z,1018.78
2022-08-31T01:31:26.616Z,1018.79
2022-08-31T01:32:27.461Z,1018.78
2022-08-31T01:33:28.341Z,1018.80
2022-08-31T01:34:29.234Z,1018.81
2022-08-31T01:35:30.115Z,1018.80
2022-08-31T01:36:30.985Z,1018.81
2022-08-31T01:37:31.870Z,1018.83
2022-08-31T01:38:32.749Z,1018.82
2022-08-31T01:39:33.633Z,1018.83
2022-08-31T01:40:34.580Z,1018.83
2022-08-31T01:41:35.434Z,1018.85
2022-08-31T01:42:36.296Z,1018.86
2022-08-31T01:43:37.170Z,1018.86
2022-08-31T01:44:38.063Z,1018.88
2022-08-31T01:45:38.948Z,1018.88
2022-08-31T01:46:39.884Z,1018.85
2022-08-31T01:47:40.762Z,1018.86
2022-08-31T01:48:41.790Z,1018.85
2022-08-31T01:49:42.600Z,1018.83
2022-08-31T01:50:43.477Z,1018.86
2022-08-31T01:51:44.366Z,1018.81
2022-08-31T01:52:45.268Z,1018.81
2022-08-31T01:53:48.492Z,1018.79
2022-08-31T01:54:47.047Z,1018.77
2022-08-31T01:55:47.921Z,1018.77
2022-08-31T01:56:48.801Z,1018.77
2022-08-31T01:57:49.695Z,1018.77
2022-08-31T01:58:50.593Z,1018.78
2022-08-31T01:59:51.465Z,1018.76
2022-08-31T02:00:52.386Z,1018.78
2022-08-31T02:01:53.401Z,1018.78
2022-08-31T02:02:53.787Z,1018.79
2022-08-31T02:03:57.031Z,1018.77
2022-08-31T02:04:55.579Z,1018.76
2022-08-31T02:07:05.387Z,1018.76
2022-08-31T02:08:06.260Z,1018.75
2022-08-31T02:09:07.148Z,1018.74
2022-08-31T02:10:08.019Z,1018.76
2022-08-31T02:11:08.892Z,1018.76
2022-08-31T02:12:09.764Z,1018.76
2022-08-31T02:13:10.779Z,1018.75
2022-08-31T02:14:11.599Z,1018.76
2022-08-31T02:15:12.478Z,1018.76
2022-08-31T02:16:13.434Z,1018.76
2022-08-31T02:17:14.253Z,1018.77
2022-08-31T02:18:15.123Z,1018.74
2022-08-31T02:19:16.056Z,1018.75
2022-08-31T02:20:16.930Z,1018.73
2022-08-31T02:21:17.809Z,1018.75
2022-08-31T02:22:18.682Z,1018.72
2022-08-31T02:23:19.786Z,1018.72
2022-08-31T02:24:20.217Z,1018.70
2022-08-31T02:25:21.083Z,1018.72
2022-08-31T02:26:21.957Z,1018.72
2022-08-31T02:27:22.842Z,1018.70
2022-08-31T02:28:23.723Z,1018.71
2022-08-31T02:29:24.613Z,1018.72
2022-08-31T02:30:25.675Z,1018.71
2022-08-31T02:31:26.564Z,1018.71
2022-08-31T02:32:27.416Z,1018.71
2022-08-31T02:33:28.294Z,1018.72
2022-08-31T02:34:29.023Z,1018.73
2022-08-31T02:35:29.894Z,1018.74
2022-08-31T02:36:30.766Z,1018.74
2022-08-31T02:37:31.310Z,1018.74
2022-08-31T02:38:32.261Z,1018.73
2022-08-31T02:39:33.140Z,1018.75
2022-08-31T02:40:34.102Z,1018.72
2022-08-31T02:41:34.983Z,1018.72
2022-08-31T02:42:53.881Z,1018.74
2022-08-31T02:43:37.623Z,1018.74
2022-08-31T02:44:37.505Z,1018.75
2022-08-31T02:45:38.386Z,1018.75
2022-08-31T02:46:39.370Z,1018.75
2022-08-31T02:47:39.759Z,1018.77
2022-08-31T02:48:40.640Z,1018.75
2022-08-31T02:49:41.516Z,1018.74
2022-08-31T02:50:42.383Z,1018.77
2022-08-31T02:51:43.266Z,1018.73
2022-08-31T02:52:44.136Z,1018.72
2022-08-31T02:53:45.026Z,1018.72
2022-08-31T02:54:45.900Z,1018.72
2022-08-31T02:55:46.781Z,1018.71
2022-08-31T02:56:47.652Z,1018.70
2022-08-31T02:57:48.533Z,1018.71
2022-08-31T02:58:49.415Z,1018.70
2022-08-31T02:59:50.295Z,1018.70
2022-08-31T03:00:51.167Z,1018.71
2022-08-31T03:01:52.118Z,1018.70
2022-08-31T03:02:53.041Z,1018.71
2022-08-31T03:03:53.902Z,1018.72
2022-08-31T03:04:54.775Z,1018.72
2022-08-31T03:05:55.645Z,1018.72
2022-08-31T03:06:56.518Z,1018.73
2022-08-31T03:07:57.394Z,1018.73
2022-08-31T03:08:58.277Z,1018.75
2022-08-31T03:09:59.158Z,1018.74
2022-08-31T03:11:00.030Z,1018.74
2022-08-31T03:12:00.912Z,1018.75
2022-08-31T03:13:01.784Z,1018.76
2022-08-31T03:14:02.674Z,1018.74
2022-08-31T03:15:03.547Z,1018.74
2022-08-31T03:16:04.471Z,1018.72
2022-08-31T03:17:05.316Z,1018.73
2022-08-31T03:18:07.002Z,1018.73
2022-08-31T03:19:07.031Z,1018.73
2022-08-31T03:20:07.911Z,1018.71
2022-08-31T03:21:08.785Z,1018.75
2022-08-31T03:22:09.664Z,1018.76
2022-08-31T03:23:10.640Z,1018.76
2022-08-31T03:24:11.037Z,1018.74
2022-08-31T03:25:11.911Z,1018.74
2022-08-31T03:26:12.782Z,1018.74
2022-08-31T03:27:13.654Z,1018.74
2022-08-31T03:28:14.533Z,1018.76
2022-08-31T03:29:15.415Z,1018.76
2022-08-31T03:30:16.286Z,1018.79
2022-08-31T03:31:17.174Z,1018.78
2022-08-31T03:32:18.039Z,1018.78
2022-08-31T03:33:19.140Z,1018.78
2022-08-31T03:34:19.560Z,1018.79
2022-08-31T03:35:20.433Z,1018.80
2022-08-31T03:36:21.315Z,1018.81
2022-08-31T03:37:22.187Z,1018.81
2022-08-31T03:38:23.066Z,1018.82
2022-08-31T03:39:23.946Z,1018.84
2022-08-31T03:40:24.957Z,1018.84
2022-08-31T03:41:25.324Z,1018.84
2022-08-31T03:42:26.220Z,1018.85
2022-08-31T03:43:26.882Z,1018.87
2022-08-31T03:44:27.764Z,1018.88
2022-08-31T03:45:28.636Z,1018.89
2022-08-31T03:46:29.588Z,1018.87
2022-08-31T03:47:30.408Z,1018.89
2022-08-31T03:48:31.380Z,1018.91
2022-08-31T03:49:32.251Z,1018.92
2022-08-31T03:50:33.122Z,1018.93
2022-08-31T03:51:33.995Z,1018.98
2022-08-31T03:52:34.873Z,1018.98
2022-08-31T03:53:35.756Z,1018.98
2022-08-31T03:54:36.636Z,1018.99
2022-08-31T03:55:37.508Z,1019.03
2022-08-31T03:56:38.379Z,1019.02
2022-08-31T03:57:39.299Z,1019.04
2022-08-31T03:58:40.141Z,1019.07
2022-08-31T03:59:41.014Z,1019.09
2022-08-31T04:00:41.894Z,1019.12
2022-08-31T04:01:42.851Z,1019.13
2022-08-31T04:02:43.788Z,1019.13
2022-08-31T04:03:44.641Z,1019.14
2022-08-31T04:04:45.511Z,1019.14
2022-08-31T04:05:46.383Z,1019.14
2022-08-31T04:06:47.253Z,1019.17
2022-08-31T04:07:48.125Z,1019.17
2022-08-31T04:08:49.039Z,1019.19
2022-08-31T04:09:49.911Z,1019.18
2022-08-31T04:10:50.789Z,1019.19
2022-08-31T04:11:52.191Z,1019.22
2022-08-31T04:12:52.556Z,1019.23
2022-08-31T04:13:53.438Z,1019.25
2022-08-31T04:14:54.309Z,1019.29
2022-08-31T04:15:55.258Z,1019.31
2022-08-31T04:16:56.124Z,1019.33
2022-08-31T04:17:57.238Z,1019.34
2022-08-31T04:18:57.905Z,1019.35
2022-08-31T04:19:58.777Z,1019.36
2022-08-31T04:20:59.648Z,1019.37
2022-08-31T04:22:00.529Z,1019.38
2022-08-31T04:23:01.402Z,1019.38
2022-08-31T04:24:02.283Z,1019.38
2022-08-31T04:25:03.156Z,1019.38
2022-08-31T04:26:04.026Z,1019.37
2022-08-31T04:27:04.901Z,1019.38
2022-08-31T04:28:05.780Z,1019.35
2022-08-31T04:29:10.811Z,1019.34
2022-08-31T04:30:08.449Z,1019.35
2022-08-31T04:31:08.379Z,1019.34
2022-08-31T04:32:09.201Z,1019.35
2022-08-31T04:33:10.073Z,1019.34
2022-08-31T04:34:10.966Z,1019.34
2022-08-31T04:35:11.840Z,1019.34
2022-08-31T04:36:12.714Z,1019.34
2022-08-31T04:37:13.583Z,1019.37
2022-08-31T04:38:14.400Z,1019.39
2022-08-31T04:39:15.281Z,1019.40
2022-08-31T04:40:16.018Z,1019.41
2022-08-31T04:41:16.849Z,1019.39
2022-08-31T04:42:17.731Z,1019.40
2022-08-31T04:43:18.779Z,1019.39
2022-08-31T04:44:20.288Z,1019.38
2022-08-31T04:45:20.214Z,1019.36
2022-08-31T04:46:21.121Z,1019.36
2022-08-31T04:47:21.901Z,1019.32
2022-08-31T04:48:22.727Z,1019.31
2022-08-31T04:49:23.556Z,1019.31
2022-08-31T04:50:24.374Z,1019.30
2022-08-31T04:51:25.192Z,1019.31
2022-08-31T04:52:28.344Z,1019.31
2022-08-31T04:53:26.810Z,1019.35
2022-08-31T04:54:27.647Z,1019.35
2022-08-31T04:55:28.518Z,1019.36
2022-08-31T04:56:29.258Z,1019.39
2022-08-31T04:57:30.074Z,1019.42
2022-08-31T04:58:30.892Z,1019.43
2022-08-31T04:59:31.735Z,1019.47
2022-08-31T05:00:32.550Z,1019.49
2022-08-31T05:01:38.649Z,1019.50
2022-08-31T05:02:35.113Z,1019.51
2022-08-31T05:03:34.966Z,1019.52
2022-08-31T05:04:35.812Z,1019.52
2022-08-31T05:05:36.631Z,1019.54
2022-08-31T05:06:37.469Z,1019.55
2022-08-31T05:07:38.292Z,1019.57
2022-08-31T05:08:39.125Z,1019.56
2022-08-31T05:09:39.943Z,1019.55
2022-08-31T05:10:40.770Z,1019.56
2022-08-31T05:11:41.600Z,1019.56
2022-08-31T05:12:42.415Z,1019.56
2022-08-31T05:13:43.246Z,1019.57
2022-08-31T05:14:44.061Z,1019.55
2022-08-31T05:15:44.907Z,1019.54
2022-08-31T05:16:45.696Z,1019.53
2022-08-31T05:17:46.515Z,1019.52
2022-08-31T05:18:47.351Z,1019.52
2022-08-31T05:19:48.170Z,1019.52
2022-08-31T05:20:48.997Z,1019.53
2022-08-31T05:21:49.828Z,1019.53
2022-08-31T05:22:50.636Z,1019.52
2022-08-31T05:23:51.465Z,1019.50
2022-08-31T05:24:52.278Z,1019.48
2022-08-31T05:25:53.098Z,1019.47
2022-08-31T05:26:53.913Z,1019.43
2022-08-31T05:27:54.733Z,1019.43
2022-08-31T05:28:55.558Z,1019.41
2022-08-31T05:29:56.377Z,1019.40
2022-08-31T05:30:57.272Z,1019.40
2022-08-31T05:31:58.047Z,1019.40
2022-08-31T05:32:58.983Z,1019.38
2022-08-31T05:33:59.811Z,1019.37
2022-08-31T05:35:00.637Z,1019.35
2022-08-31T05:36:01.455Z,1019.35
2022-08-31T05:37:02.273Z,1019.33
2022-08-31T05:38:03.090Z,1019.33
2022-08-31T05:39:03.916Z,1019.33
2022-08-31T05:40:04.768Z,1019.33
2022-08-31T05:41:05.554Z,1019.32
2022-08-31T05:42:06.373Z,1019.29
2022-08-31T05:43:07.198Z,1019.30
2022-08-31T05:44:08.025Z,1019.30
2022-08-31T05:45:08.852Z,1019.28
2022-08-31T05:46:10.584Z,1019.27
2022-08-31T05:47:10.582Z,1019.27
2022-08-31T05:48:11.358Z,1019.26
2022-08-31T05:49:12.193Z,1019.25
2022-08-31T05:50:13.013Z,1019.20
2022-08-31T05:51:13.840Z,1019.20
2022-08-31T05:52:14.797Z,1019.21
2022-08-31T05:53:15.614Z,1019.19
2022-08-31T05:54:16.442Z,1019.17
2022-08-31T05:55:17.270Z,1019.15
2022-08-31T05:56:19.279Z,1019.12
2022-08-31T05:57:18.599Z,1019.13
2022-08-31T05:58:19.416Z,1019.12
2022-08-31T05:59:20.242Z,1019.15
2022-08-31T06:00:21.064Z,1019.16
2022-08-31T06:01:22.099Z,1019.16
2022-08-31T06:02:22.928Z,1019.15
2022-08-31T06:03:23.464Z,1019.15
2022-08-31T06:04:24.292Z,1019.16
2022-08-31T06:05:25.217Z,1019.18
2022-08-31T06:06:25.988Z,1019.17
2022-08-31T06:07:26.804Z,1019.18
2022-08-31T06:08:27.732Z,1019.18
2022-08-31T06:09:28.498Z,1019.19
2022-08-31T06:10:29.317Z,1019.19
2022-08-31T06:11:30.133Z,1019.21
2022-08-31T06:12:30.985Z,1019.22
2022-08-31T06:13:31.796Z,1019.22
2022-08-31T06:14:32.632Z,1019.23
2022-08-31T06:15:33.449Z,1019.24
2022-08-31T06:16:34.313Z,1019.27
2022-08-31T06:17:35.135Z,1019.25
2022-08-31T06:18:35.963Z,1019.26
2022-08-31T06:19:36.805Z,1019.26
2022-08-31T06:20:37.628Z,1019.27
2022-08-31T06:21:38.450Z,1019.28
2022-08-31T06:22:39.401Z,1019.25
2022-08-31T06:23:40.225Z,1019.25
2022-08-31T06:24:41.066Z,1019.23
2022-08-31T06:25:41.885Z,1019.24
2022-08-31T06:26:42.729Z,1019.25
2022-08-31T06:27:43.532Z,1019.25
2022-08-31T06:28:44.363Z,1019.26
2022-08-31T06:29:45.204Z,1019.28
2022-08-31T06:30:54.957Z,1019.29
2022-08-31T06:31:47.781Z,1019.32
2022-08-31T06:32:47.568Z,1019.32
2022-08-31T06:33:48.393Z,1019.35
2022-08-31T06:34:49.232Z,1019.39
2022-08-31T06:35:50.048Z,1019.41
2022-08-31T06:36:50.869Z,1019.44
2022-08-31T06:37:51.695Z,1019.45
2022-08-31T06:38:52.531Z,1019.46
2022-08-31T06:39:53.361Z,1019.44
2022-08-31T06:40:54.206Z,1019.45
2022-08-31T06:41:55.029Z,1019.45
2022-08-31T06:42:55.843Z,1019.47
2022-08-31T06:43:56.669Z,1019.46
2022-08-31T06:44:57.489Z,1019.47
2022-08-31T06:45:58.399Z,1019.48
2022-08-31T06:46:59.211Z,1019.46
2022-08-31T06:48:00.050Z,1019.46
2022-08-31T06:49:00.883Z,1019.47
2022-08-31T06:50:01.699Z,1019.46
2022-08-31T06:51:02.518Z,1019.47
2022-08-31T06:52:03.334Z,1019.44
2022-08-31T06:53:04.153Z,1019.46
2022-08-31T06:54:21.758Z,1019.47
2022-08-31T06:55:06.746Z,1019.47
2022-08-31T06:56:06.563Z,1019.47
2022-08-31T06:57:08.266Z,1019.48
2022-08-31T06:58:08.082Z,1019.50
2022-08-31T06:59:08.913Z,1019.48
2022-08-31T07:00:09.728Z,1019.48
2022-08-31T07:01:10.669Z,1019.47
2022-08-31T07:02:11.633Z,1019.48
2022-08-31T07:03:11.994Z,1019.49
2022-08-31T07:04:12.827Z,1019.50
2022-08-31T07:05:20.022Z,1019.48
2022-08-31T07:06:15.358Z,1019.48
2022-08-31T07:07:15.179Z,1019.47
2022-08-31T07:08:16.023Z,1019.46
2022-08-31T07:09:16.844Z,1019.48
2022-08-31T07:10:17.682Z,1019.46
2022-08-31T07:11:18.505Z,1019.46
2022-08-31T07:12:19.331Z,1019.47
2022-08-31T07:13:20.349Z,1019.48
2022-08-31T07:14:20.736Z,1019.49
2022-08-31T07:15:21.559Z,1019.50
2022-08-31T07:16:22.465Z,1019.51
2022-08-31T07:17:23.315Z,1019.53
2022-08-31T07:18:24.142Z,1019.53
2022-08-31T07:19:24.815Z,1019.54
2022-08-31T07:20:25.628Z,1019.54
2022-08-31T07:21:26.449Z,1019.55
2022-08-31T07:22:27.275Z,1019.55
2022-08-31T07:23:28.099Z,1019.56
2022-08-31T07:24:28.956Z,1019.55
2022-08-31T07:25:29.774Z,1019.56
2022-08-31T07:26:34.475Z,1019.54
2022-08-31T07:27:32.322Z,1019.53
2022-08-31T07:28:32.147Z,1019.51
2022-08-31T07:29:32.977Z,1019.51
2022-08-31T07:30:33.866Z,1019.51
2022-08-31T07:31:34.634Z,1019.48
2022-08-31T07:32:35.468Z,1019.49
2022-08-31T07:33:36.297Z,1019.48
2022-08-31T07:34:37.124Z,1019.49
2022-08-31T07:35:37.945Z,1019.47
2022-08-31T07:36:38.788Z,1019.47
2022-08-31T07:37:39.591Z,1019.46
2022-08-31T07:38:40.408Z,1019.48
2022-08-31T07:39:41.238Z,1019.51
2022-08-31T07:40:42.131Z,1019.49
2022-08-31T07:41:42.920Z,1019.50
2022-08-31T07:42:43.756Z,1019.52
2022-08-31T07:43:44.565Z,1019.51
2022-08-31T07:44:51.980Z,1019.50
2022-08-31T07:45:47.199Z,1019.51
2022-08-31T07:46:46.994Z,1019.51
2022-08-31T07:47:47.540Z,1019.51
2022-08-31T07:48:48.361Z,1019.52
2022-08-31T07:49:49.180Z,1019.52
2022-08-31T07:50:50.016Z,1019.54
2022-08-31T07:51:50.835Z,1019.53
2022-08-31T07:52:51.653Z,1019.57
2022-08-31T07:53:52.491Z,1019.57
2022-08-31T07:54:53.308Z,1019.57
2022-08-31T07:55:54.131Z,1019.57
2022-08-31T07:56:54.977Z,1019.56
2022-08-31T07:57:55.793Z,1019.59
2022-08-31T07:58:56.623Z,1019.57
2022-08-31T07:59:57.441Z,1019.58
2022-08-31T08:00:58.257Z,1019.58
2022-08-31T08:01:59.168Z,1019.57
2022-08-31T08:02:59.977Z,1019.58
2022-08-31T08:04:00.809Z,1019.55
2022-08-31T08:05:01.652Z,1019.56
2022-08-31T08:06:02.455Z,1019.54
2022-08-31T08:07:03.274Z,1019.54
2022-08-31T08:08:04.093Z,1019.56
2022-08-31T08:09:22.446Z,1019.56
2022-08-31T08:10:06.654Z,1019.57
2022-08-31T08:11:06.467Z,1019.57
2022-08-31T08:12:07.543Z,1019.60
2022-08-31T08:13:07.974Z,1019.63
2022-08-31T08:14:08.944Z,1019.63
2022-08-31T08:15:09.697Z,1019.62
2022-08-31T08:16:10.600Z,1019.62
2022-08-31T08:17:11.415Z,1019.63
2022-08-31T08:18:12.242Z,1019.61
2022-08-31T08:19:13.069Z,1019.62
2022-08-31T08:20:14.138Z,1019.61
2022-08-31T08:21:14.427Z,1019.60
2022-08-31T08:22:26.114Z,1019.60
2022-08-31T08:23:18.165Z,1019.61
2022-08-31T08:24:16.299Z,1019.60
2022-08-31T08:25:16.831Z,1019.60
2022-08-31T08:26:21.183Z,1019.63
2022-08-31T08:27:18.516Z,1019.64
2022-08-31T08:28:41.501Z,1019.64
2022-08-31T08:29:21.056Z,1019.67
2022-08-31T08:30:20.914Z,1019.68
2022-08-31T08:31:21.740Z,1019.69
2022-08-31T08:32:22.549Z,1019.68
2022-08-31T08:33:23.377Z,1019.69
2022-08-31T08:34:31.516Z,1019.67
2022-08-31T08:35:25.930Z,1019.66
2022-08-31T08:36:25.740Z,1019.67
2022-08-31T08:37:47.476Z,1019.66
2022-08-31T08:38:28.281Z,1019.65
2022-08-31T08:39:28.109Z,1019.66
2022-08-31T08:40:29.013Z,1019.64
2022-08-31T08:41:29.790Z,1019.63
2022-08-31T08:42:30.608Z,1019.63
2022-08-31T08:43:31.453Z,1019.64
2022-08-31T08:44:32.276Z,1019.66
2022-08-31T08:45:33.134Z,1019.65
2022-08-31T08:46:35.504Z,1019.65
2022-08-31T08:47:38.636Z,1019.64
2022-08-31T08:48:35.343Z,1019.64
2022-08-31T08:49:36.164Z,1019.62
2022-08-31T08:50:36.992Z,1019.65
2022-08-31T08:51:37.807Z,1019.66
2022-08-31T08:52:38.625Z,1019.67
2022-08-31T08:53:39.473Z,1019.67
2022-08-31T08:54:40.284Z,1019.67
2022-08-31T08:55:41.112Z,1019.69
2022-08-31T08:56:41.939Z,1019.68
2022-08-31T08:57:42.786Z,1019.69
2022-08-31T08:58:43.620Z,1019.70
2022-08-31T08:59:44.457Z,1019.72
2022-08-31T09:00:45.265Z,1019.74
2022-08-31T09:01:46.161Z,1019.74
2022-08-31T09:02:47.002Z,1019.76
2022-08-31T09:03:47.702Z,1019.76
2022-08-31T09:04:48.541Z,1019.78
2022-08-31T09:05:49.354Z,1019.76
2022-08-31T09:06:54.151Z,1019.75
2022-08-31T09:07:50.772Z,1019.76
2022-08-31T09:08:51.607Z,1019.75
2022-08-31T09:09:52.417Z,1019.74
2022-08-31T09:10:53.261Z,1019.73
2022-08-31T09:11:54.078Z,1019.73
2022-08-31T09:12:54.924Z,1019.74
2022-08-31T09:13:55.753Z,1019.75
2022-08-31T09:14:56.580Z,1019.78
2022-08-31T09:15:57.482Z,1019.79
2022-08-31T09:16:58.286Z,1019.80
2022-08-31T09:17:59.999Z,1019.81
2022-08-31T09:18:59.872Z,1019.85
2022-08-31T09:20:00.694Z,1019.85
2022-08-31T09:21:01.508Z,1019.86
2022-08-31T09:22:02.337Z,1019.86
2022-08-31T09:23:03.172Z,1019.85
2022-08-31T09:24:04.005Z,1019.86
2022-08-31T09:25:04.833Z,1019.88
2022-08-31T09:26:08.353Z,1019.89
2022-08-31T09:27:06.430Z,1019.90
2022-08-31T09:28:07.250Z,1019.91
2022-08-31T09:29:08.106Z,1019.91
2022-08-31T09:30:08.929Z,1019.90
2022-08-31T09:31:09.832Z,1019.91
2022-08-31T09:32:10.626Z,1019.91
2022-08-31T09:33:11.546Z,1019.91
2022-08-31T09:34:12.352Z,1019.91
2022-08-31T09:35:13.189Z,1019.92
2022-08-31T09:36:14.011Z,1019.92
2022-08-31T09:37:14.837Z,1019.94
2022-08-31T09:38:15.656Z,1019.95
2022-08-31T09:39:16.472Z,1019.95
2022-08-31T09:40:23.304Z,1019.93
2022-08-31T09:41:19.016Z,1019.93
2022-08-31T09:42:18.506Z,1019.93
2022-08-31T09:43:19.474Z,1019.93
2022-08-31T09:44:20.315Z,1019.94
2022-08-31T09:45:21.244Z,1019.92
2022-08-31T09:46:22.092Z,1019.94
2022-08-31T09:47:22.923Z,1019.92
2022-08-31T09:48:23.749Z,1019.92
2022-08-31T09:49:24.586Z,1019.93
2022-08-31T09:50:25.415Z,1019.93
2022-08-31T09:51:26.227Z,1019.94
2022-08-31T09:52:27.066Z,1019.94
2022-08-31T09:53:27.885Z,1019.93
2022-08-31T09:54:28.711Z,1019.94
2022-08-31T09:55:29.529Z,1019.93
2022-08-31T09:56:30.356Z,1019.94
2022-08-31T09:57:31.178Z,1019.93
2022-08-31T09:58:32.006Z,1019.94
2022-08-31T09:59:32.834Z,1019.94
2022-08-31T10:00:33.652Z,1019.95
2022-08-31T10:01:34.577Z,1019.94
2022-08-31T10:02:35.359Z,1019.95
2022-08-31T10:03:36.188Z,1019.95
2022-08-31T10:04:37.125Z,1019.94
2022-08-31T10:05:37.910Z,1019.93
2022-08-31T10:06:38.724Z,1019.95
2022-08-31T10:07:39.553Z,1019.94
2022-08-31T10:08:40.387Z,1019.95
2022-08-31T10:09:41.221Z,1019.96
2022-08-31T10:10:41.903Z,1019.96
2022-08-31T10:11:42.730Z,1019.96
2022-08-31T10:12:43.547Z,1019.95
2022-08-31T10:13:44.384Z,1019.97
2022-08-31T10:14:45.215Z,1019.97
2022-08-31T10:15:46.089Z,1019.97
2022-08-31T10:16:46.883Z,1019.99
2022-08-31T10:17:47.696Z,1020.00
2022-08-31T10:18:48.524Z,1020.01
2022-08-31T10:19:49.358Z,1020.01
2022-08-31T10:20:50.173Z,1020.01
2022-08-31T10:21:50.999Z,1019.99
2022-08-31T10:22:51.829Z,1020.01
2022-08-31T10:23:52.660Z,1020.01
2022-08-31T10:24:53.478Z,1019.99
2022-08-31T10:25:54.306Z,1020.01
2022-08-31T10:26:55.123Z,1020.02
2022-08-31T10:27:55.944Z,1020.04
2022-08-31T10:28:56.777Z,1020.03
2022-08-31T10:29:57.597Z,1020.03
2022-08-31T10:30:58.496Z,1020.04
2022-08-31T10:31:59.273Z,1020.04
2022-08-31T10:33:00.093Z,1020.05
2022-08-31T10:34:00.921Z,1020.07
2022-08-31T10:35:01.763Z,1020.07
2022-08-31T10:36:02.580Z,1020.09
2022-08-31T10:37:03.393Z,1020.10
2022-08-31T10:38:04.212Z,1020.11
2022-08-31T10:39:05.041Z,1020.13
2022-08-31T10:40:05.935Z,1020.14
2022-08-31T10:41:06.733Z,1020.14
2022-08-31T10:42:07.562Z,1020.14
2022-08-31T10:43:08.379Z,1020.15
2022-08-31T10:44:09.215Z,1020.16
2022-08-31T10:45:10.031Z,1020.16
2022-08-31T10:46:10.942Z,1020.16
2022-08-31T10:47:21.557Z,1020.17
2022-08-31T10:48:13.424Z,1020.18
2022-08-31T10:49:13.261Z,1020.16
2022-08-31T10:50:14.076Z,1020.17
2022-08-31T10:51:14.927Z,1020.19
2022-08-31T10:52:15.756Z,1020.16
2022-08-31T10:53:16.600Z,1020.18
2022-08-31T10:54:17.428Z,1020.18
2022-08-31T10:55:18.238Z,1020.19
2022-08-31T10:56:19.061Z,1020.19
2022-08-31T10:57:22.345Z,1020.18
2022-08-31T10:58:20.835Z,1020.20
2022-08-31T10:59:21.673Z,1020.21
2022-08-31T11:00:22.491Z,1020.19
2022-08-31T11:01:23.393Z,1020.19
2022-08-31T11:02:24.178Z,1020.20
2022-08-31T11:03:25.057Z,1020.18
2022-08-31T11:04:25.905Z,1020.20
2022-08-31T11:05:26.636Z,1020.21
2022-08-31T11:06:27.460Z,1020.22
2022-08-31T11:07:28.283Z,1020.22
2022-08-31T11:08:29.100Z,1020.24
2022-08-31T11:09:29.936Z,1020.27
2022-08-31T11:10:30.745Z,1020.27
2022-08-31T11:11:31.583Z,1020.28
2022-08-31T11:12:32.419Z,1020.28
2022-08-31T11:13:33.227Z,1020.28
2022-08-31T11:14:34.064Z,1020.28
2022-08-31T11:15:34.931Z,1020.30
2022-08-31T11:16:35.719Z,1020.30
2022-08-31T11:17:36.511Z,1020.29
2022-08-31T11:18:37.350Z,1020.28
2022-08-31T11:19:38.179Z,1020.29
2022-08-31T11:20:39.078Z,1020.26
2022-08-31T11:21:39.905Z,1020.24
2022-08-31T11:22:40.725Z,1020.25
2022-08-31T11:23:42.273Z,1020.27
2022-08-31T11:24:42.396Z,1020.28
2022-08-31T11:25:43.217Z,1020.28
2022-08-31T11:26:44.038Z,1020.29
2022-08-31T11:27:44.855Z,1020.27
2022-08-31T11:28:45.682Z,1020.29
2022-08-31T11:29:46.514Z,1020.27
2022-08-31T11:30:50.981Z,1020.28
2022-08-31T11:31:48.264Z,1020.26
2022-08-31T11:32:49.048Z,1020.27
2022-08-31T11:34:14.261Z,1020.28
2022-08-31T11:34:51.610Z,1020.29
2022-08-31T11:35:51.507Z,1020.29
2022-08-31T11:36:52.258Z,1020.27
2022-08-31T11:37:53.133Z,1020.29
2022-08-31T11:38:53.971Z,1020.32
2022-08-31T11:39:54.824Z,1020.33
2022-08-31T11:40:55.660Z,1020.34
2022-08-31T11:41:56.478Z,1020.31
2022-08-31T11:42:57.306Z,1020.32
2022-08-31T11:43:57.865Z,1020.31
2022-08-31T11:44:58.699Z,1020.32
2022-08-31T11:45:59.617Z,1020.31
2022-08-31T11:47:00.415Z,1020.31
2022-08-31T11:48:01.329Z,1020.34
2022-08-31T11:49:02.303Z,1020.33
2022-08-31T11:50:03.133Z,1020.34
2022-08-31T11:51:03.953Z,1020.34
2022-08-31T11:52:04.776Z,1020.32
2022-08-31T11:53:05.606Z,1020.33
2022-08-31T11:54:06.426Z,1020.32
2022-08-31T11:55:07.264Z,1020.31
2022-08-31T11:56:08.081Z,1020.32
2022-08-31T11:57:08.903Z,1020.31
2022-08-31T11:58:09.720Z,1020.33
2022-08-31T11:59:10.546Z,1020.36
2022-08-31T12:00:11.385Z,1020.35
2022-08-31T12:01:12.205Z,1020.35
2022-08-31T12:02:13.086Z,1020.36
2022-08-31T12:03:13.910Z,1020.38
2022-08-31T12:04:14.859Z,1020.38
2022-08-31T12:05:15.723Z,1020.37
2022-08-31T12:06:16.507Z,1020.36
2022-08-31T12:07:17.336Z,1020.35
2022-08-31T12:08:18.152Z,1020.34
2022-08-31T12:09:18.980Z,1020.33
2022-08-31T12:10:22.055Z,1020.35
2022-08-31T12:11:20.437Z,1020.36
2022-08-31T12:12:21.257Z,1020.37
2022-08-31T12:13:22.074Z,1020.39
2022-08-31T12:14:22.892Z,1020.41
2022-08-31T12:15:23.720Z,1020.40
2022-08-31T12:16:24.619Z,1020.39